createdAt,value
2024-02-26T00:00:09.496Z,2641.00
2024-02-26T00:01:09.521Z,2614.00
2024-02-26T00:02:09.620Z,2605.00
2024-02-26T00:03:09.723Z,2607.00
2024-02-26T00:04:09.798Z,2606.00
2024-02-26T00:05:09.834Z,2595.00
2024-02-26T00:06:09.899Z,2574.00
2024-02-26T00:07:09.931Z,2588.00
2024-02-26T00:08:09.868Z,2566.00
2024-02-26T00:09:09.912Z,2558.00
2024-02-26T00:10:09.921Z,2542.00
2024-02-26T00:11:10.007Z,2532.00
2024-02-26T00:12:10.135Z,2515.00
2024-02-26T00:13:10.066Z,2527.00
2024-02-26T00:14:10.139Z,2573.00
2024-02-26T00:15:10.245Z,2653.00
2024-02-26T00:16:10.227Z,2662.00
2024-02-26T00:17:10.277Z,2703.00
2024-02-26T00:18:10.498Z,2718.00
2024-02-26T00:19:10.591Z,2727.00
2024-02-26T00:20:10.454Z,2693.00
2024-02-26T00:21:10.474Z,2683.00
2024-02-26T00:22:10.507Z,2691.00
2024-02-26T00:23:10.480Z,2695.00
2024-02-26T00:24:10.579Z,2717.00
2024-02-26T00:25:10.614Z,2767.00
2024-02-26T00:26:10.644Z,2757.00
2024-02-26T00:27:10.821Z,2738.00
2024-02-26T00:28:10.827Z,2754.00
2024-02-26T00:29:10.843Z,2795.00
2024-02-26T00:30:10.961Z,2773.00
2024-02-26T00:31:10.948Z,2752.00
2024-02-26T00:32:11.067Z,2728.00
2024-02-26T00:33:11.272Z,2702.00
2024-02-26T00:34:11.290Z,2727.00
2024-02-26T00:35:11.250Z,2750.00
2024-02-26T00:36:11.349Z,2771.00
2024-02-26T00:37:11.339Z,2775.00
2024-02-26T00:38:11.342Z,2757.00
2024-02-26T00:39:11.470Z,2722.00
2024-02-26T00:40:11.471Z,2737.00
2024-02-26T00:41:11.654Z,2743.00
2024-02-26T00:42:11.713Z,2753.00
2024-02-26T00:43:11.683Z,2774.00
2024-02-26T00:44:11.689Z,2800.00
2024-02-26T00:45:11.798Z,2805.00
2024-02-26T00:46:11.817Z,2809.00
2024-02-26T00:47:11.912Z,2826.00
2024-02-26T00:48:12.017Z,2856.00
2024-02-26T00:49:12.129Z,2876.00
2024-02-26T00:50:12.126Z,2882.00
2024-02-26T00:51:12.173Z,2859.00
2024-02-26T00:52:12.226Z,2861.00
2024-02-26T00:53:12.221Z,2849.00
2024-02-26T00:54:12.288Z,2834.00
2024-02-26T00:55:12.339Z,2896.00
2024-02-26T00:56:12.394Z,2889.00
2024-02-26T00:57:12.500Z,2875.00
2024-02-26T00:58:12.441Z,2829.00
2024-02-26T00:59:12.492Z,2795.00
2024-02-26T01:00:12.653Z,2786.00
2024-02-26T01:01:12.599Z,2763.00
2024-02-26T01:02:12.591Z,2754.00
2024-02-26T01:03:12.677Z,2709.00
2024-02-26T01:04:12.677Z,2658.00
2024-02-26T01:05:12.716Z,2632.00
2024-02-26T01:06:12.858Z,2630.00
2024-02-26T01:07:12.937Z,2636.00
2024-02-26T01:08:12.915Z,2660.00
2024-02-26T01:09:12.939Z,2698.00
2024-02-26T01:10:13.498Z,2735.00
2024-02-26T01:11:12.903Z,2738.00
2024-02-26T01:12:13.001Z,2749.00
2024-02-26T01:13:13.608Z,2781.00
2024-02-26T01:14:12.996Z,2782.00
2024-02-26T01:15:13.118Z,2767.00
2024-02-26T01:16:13.081Z,2752.00
2024-02-26T01:17:13.148Z,2697.00
2024-02-26T01:18:13.370Z,2663.00
2024-02-26T01:19:13.390Z,2652.00
2024-02-26T01:20:13.266Z,2636.00
2024-02-26T01:21:13.316Z,2625.00
2024-02-26T01:22:13.300Z,2600.00
2024-02-26T01:23:13.392Z,2579.00
2024-02-26T01:24:13.492Z,2564.00
2024-02-26T01:25:13.448Z,2534.00
2024-02-26T01:26:13.490Z,2528.00
2024-02-26T01:27:13.498Z,2515.00
2024-02-26T01:28:13.467Z,2520.00
2024-02-26T01:29:13.596Z,2516.00
2024-02-26T01:30:13.703Z,2486.00
2024-02-26T01:31:13.645Z,2471.00
2024-02-26T01:32:13.713Z,2460.00
2024-02-26T01:33:13.884Z,2451.00
2024-02-26T01:34:14.033Z,2475.00
2024-02-26T01:35:13.886Z,2509.00
2024-02-26T01:36:13.944Z,2535.00
2024-02-26T01:37:14.082Z,2562.00
2024-02-26T01:38:14.113Z,2568.00
2024-02-26T01:39:14.246Z,2585.00
2024-02-26T01:40:14.283Z,2606.00
2024-02-26T01:41:14.288Z,2626.00
2024-02-26T01:42:14.427Z,2633.00
2024-02-26T01:43:14.480Z,2653.00
2024-02-26T01:44:14.542Z,2676.00
2024-02-26T01:45:14.593Z,2684.00
2024-02-26T01:46:14.544Z,2713.00
2024-02-26T01:47:14.620Z,2685.00
2024-02-26T01:48:16.033Z,2657.00
2024-02-26T01:49:14.911Z,2607.00
2024-02-26T01:50:14.792Z,2569.00
2024-02-26T01:51:14.888Z,2520.00
2024-02-26T01:52:14.889Z,2501.00
2024-02-26T01:53:14.926Z,2493.00
2024-02-26T01:54:15.078Z,2484.00
2024-02-26T01:55:15.066Z,2485.00
2024-02-26T01:56:15.100Z,2491.00
2024-02-26T01:57:15.254Z,2491.00
2024-02-26T01:58:15.272Z,2487.00
2024-02-26T01:59:15.333Z,2515.00
2024-02-26T02:00:15.483Z,2526.00
2024-02-26T02:01:15.493Z,2543.00
2024-02-26T02:02:15.499Z,2602.00
2024-02-26T02:03:15.602Z,2596.00
2024-02-26T02:04:15.646Z,2529.00
2024-02-26T02:05:15.686Z,2496.00
2024-02-26T02:06:15.761Z,2453.00
2024-02-26T02:07:15.814Z,2427.00
2024-02-26T02:08:15.861Z,2429.00
2024-02-26T02:09:15.953Z,2417.00
2024-02-26T02:10:15.951Z,2396.00
2024-02-26T02:11:16.104Z,2386.00
2024-02-26T02:12:16.076Z,2375.00
2024-02-26T02:13:16.094Z,2377.00
2024-02-26T02:14:16.092Z,2362.00
2024-02-26T02:15:16.159Z,2360.00
2024-02-26T02:16:16.164Z,2361.00
2024-02-26T02:17:16.194Z,2351.00
2024-02-26T02:18:16.329Z,2413.00
2024-02-26T02:19:16.348Z,2442.00
2024-02-26T02:20:16.353Z,2454.00
2024-02-26T02:21:16.435Z,2441.00
2024-02-26T02:22:16.399Z,2443.00
2024-02-26T02:23:16.412Z,2461.00
2024-02-26T02:24:16.490Z,2528.00
2024-02-26T02:25:16.505Z,2561.00
2024-02-26T02:26:16.566Z,2568.00
2024-02-26T02:27:16.646Z,2568.00
2024-02-26T02:28:16.690Z,2515.00
2024-02-26T02:29:16.767Z,2484.00
2024-02-26T02:30:16.886Z,2469.00
2024-02-26T02:31:16.927Z,2429.00
2024-02-26T02:32:16.974Z,2370.00
2024-02-26T02:33:17.106Z,2302.00
2024-02-26T02:34:17.150Z,2269.00
2024-02-26T02:35:17.093Z,2255.00
2024-02-26T02:36:17.170Z,2259.00
2024-02-26T02:37:17.238Z,2250.00
2024-02-26T02:38:17.325Z,2247.00
2024-02-26T02:39:17.431Z,2221.00
2024-02-26T02:40:17.504Z,2246.00
2024-02-26T02:41:17.534Z,2260.00
2024-02-26T02:42:17.625Z,2284.00
2024-02-26T02:43:17.646Z,2284.00
2024-02-26T02:44:17.590Z,2263.00
2024-02-26T02:45:17.724Z,2202.00
2024-02-26T02:46:17.697Z,2154.00
2024-02-26T02:47:17.749Z,2118.00
2024-02-26T02:48:17.893Z,2063.00
2024-02-26T02:49:17.971Z,2026.00
2024-02-26T02:50:17.888Z,2029.00
2024-02-26T02:51:17.980Z,1985.00
2024-02-26T02:52:17.996Z,1917.00
2024-02-26T02:53:18.037Z,1893.00
2024-02-26T02:54:18.241Z,1903.00
2024-02-26T02:55:18.179Z,1895.00
2024-02-26T02:56:18.236Z,1897.00
2024-02-26T02:57:18.320Z,1892.00
2024-02-26T02:58:18.274Z,1880.00
2024-02-26T02:59:18.352Z,1857.00
2024-02-26T03:00:18.470Z,1858.00
2024-02-26T03:01:18.527Z,1888.00
2024-02-26T03:02:18.603Z,1900.00
2024-02-26T03:03:18.755Z,1872.00
2024-02-26T03:04:18.733Z,1848.00
2024-02-26T03:05:18.793Z,1844.00
2024-02-26T03:06:18.952Z,1827.00
2024-02-26T03:07:19.016Z,1785.00
2024-02-26T03:08:19.075Z,1733.00
2024-02-26T03:09:19.109Z,1757.00
2024-02-26T03:10:19.174Z,1803.00
2024-02-26T03:11:19.289Z,1824.00
2024-02-26T03:12:19.358Z,1825.00
2024-02-26T03:13:19.362Z,1824.00
2024-02-26T03:14:19.401Z,1816.00
2024-02-26T03:15:19.490Z,1823.00
2024-02-26T03:16:19.499Z,1842.00
2024-02-26T03:17:19.542Z,1760.00
2024-02-26T03:18:19.735Z,1737.00
2024-02-26T03:19:19.751Z,1743.00
2024-02-26T03:20:19.710Z,1699.00
2024-02-26T03:21:19.871Z,1680.00
2024-02-26T03:22:19.837Z,1630.00
2024-02-26T03:23:19.840Z,1569.00
2024-02-26T03:24:20.154Z,1472.00
2024-02-26T03:25:20.002Z,1532.00
2024-02-26T03:26:20.027Z,1573.00
2024-02-26T03:27:20.140Z,1548.00
2024-02-26T03:28:20.091Z,1511.00
2024-02-26T03:29:20.135Z,1505.00
2024-02-26T03:30:20.231Z,1522.00
2024-02-26T03:31:20.246Z,1577.00
2024-02-26T03:32:20.369Z,1596.00
2024-02-26T03:33:20.590Z,1612.00
2024-02-26T03:34:20.659Z,1642.00
2024-02-26T03:35:20.521Z,1671.00
2024-02-26T03:36:20.640Z,1688.00
2024-02-26T03:37:20.667Z,1688.00
2024-02-26T03:38:20.716Z,1696.00
2024-02-26T03:39:20.766Z,1726.00
2024-02-26T03:40:20.797Z,1725.00
2024-02-26T03:41:20.798Z,1718.00
2024-02-26T03:42:20.958Z,1728.00
2024-02-26T03:43:20.956Z,1716.00
2024-02-26T03:44:20.996Z,1744.00
2024-02-26T03:45:21.500Z,1777.00
2024-02-26T03:46:21.072Z,1808.00
2024-02-26T03:47:21.199Z,1857.00
2024-02-26T03:48:21.412Z,1903.00
2024-02-26T03:49:21.374Z,1921.00
2024-02-26T03:50:21.303Z,1933.00
2024-02-26T03:51:21.388Z,1944.00
2024-02-26T03:52:21.410Z,1959.00
2024-02-26T03:53:21.425Z,1994.00
2024-02-26T03:54:21.511Z,2031.00
2024-02-26T03:55:21.499Z,2034.00
2024-02-26T03:56:21.505Z,2034.00
2024-02-26T03:57:21.510Z,2021.00
2024-02-26T03:58:21.546Z,2021.00
2024-02-26T03:59:21.627Z,1987.00
2024-02-26T04:00:23.278Z,1983.00
2024-02-26T04:01:21.785Z,1944.00
2024-02-26T04:02:21.722Z,1907.00
2024-02-26T04:03:21.903Z,1834.00
2024-02-26T04:04:21.899Z,1759.00
2024-02-26T04:05:21.942Z,1682.00
2024-02-26T04:06:22.101Z,1645.00
2024-02-26T04:07:22.096Z,1621.00
2024-02-26T04:08:22.086Z,1594.00
2024-02-26T04:09:22.177Z,1533.00
2024-02-26T04:10:22.128Z,1514.00
2024-02-26T04:11:22.205Z,1513.00
2024-02-26T04:12:23.530Z,1549.00
2024-02-26T04:13:22.351Z,1591.00
2024-02-26T04:14:22.400Z,1607.00
2024-02-26T04:15:22.522Z,1612.00
2024-02-26T04:16:22.477Z,1612.00
2024-02-26T04:17:22.533Z,1644.00
2024-02-26T04:18:22.714Z,1675.00
2024-02-26T04:19:22.939Z,1704.00
2024-02-26T04:20:22.758Z,1734.00
2024-02-26T04:21:22.877Z,1768.00
2024-02-26T04:22:22.851Z,1822.00
2024-02-26T04:23:22.891Z,1868.00
2024-02-26T04:24:22.970Z,1936.00
2024-02-26T04:25:23.046Z,1990.00
2024-02-26T04:26:23.095Z,2018.00
2024-02-26T04:27:23.231Z,2034.00
2024-02-26T04:28:23.231Z,2046.00
2024-02-26T04:29:23.298Z,2058.00
2024-02-26T04:30:23.508Z,2082.00
2024-02-26T04:31:23.404Z,2108.00
2024-02-26T04:32:23.557Z,2146.00
2024-02-26T04:33:23.512Z,2187.00
2024-02-26T04:34:23.627Z,2234.00
2024-02-26T04:35:23.498Z,2264.00
2024-02-26T04:36:23.554Z,2281.00
2024-02-26T04:37:23.566Z,2283.00
2024-02-26T04:38:23.635Z,2250.00
2024-02-26T04:39:23.833Z,2225.00
2024-02-26T04:40:23.804Z,2205.00
2024-02-26T04:41:23.834Z,2167.00
2024-02-26T04:42:24.011Z,2133.00
2024-02-26T04:43:23.943Z,2149.00
2024-02-26T04:44:24.043Z,2201.00
2024-02-26T04:45:24.194Z,2237.00
2024-02-26T04:46:24.136Z,2274.00
2024-02-26T04:47:24.171Z,2306.00
2024-02-26T04:48:24.332Z,2316.00
2024-02-26T04:49:24.294Z,2354.00
2024-02-26T04:50:24.321Z,2379.00
2024-02-26T04:51:24.459Z,2419.00
2024-02-26T04:52:24.521Z,2416.00
2024-02-26T04:53:24.623Z,2422.00
2024-02-26T04:54:24.771Z,2434.00
2024-02-26T04:55:24.671Z,2436.00
2024-02-26T04:56:24.653Z,2432.00
2024-02-26T04:57:24.758Z,2434.00
2024-02-26T04:58:24.724Z,2418.00
2024-02-26T04:59:24.733Z,2405.00
2024-02-26T05:00:24.832Z,2399.00
2024-02-26T05:01:24.861Z,2407.00
2024-02-26T05:02:24.829Z,2394.00
2024-02-26T05:03:24.859Z,2404.00
2024-02-26T05:04:24.915Z,2394.00
2024-02-26T05:05:24.960Z,2357.00
2024-02-26T05:06:24.941Z,2342.00
2024-02-26T05:07:24.923Z,2324.00
2024-02-26T05:08:24.898Z,2320.00
2024-02-26T05:09:24.959Z,2343.00
2024-02-26T05:10:24.942Z,2361.00
2024-02-26T05:11:25.080Z,2347.00
2024-02-26T05:12:25.053Z,2343.00
2024-02-26T05:13:25.085Z,2322.00
2024-02-26T05:14:25.092Z,2305.00
2024-02-26T05:15:25.285Z,2286.00
2024-02-26T05:16:25.148Z,2260.00
2024-02-26T05:17:26.568Z,2246.00
2024-02-26T05:18:25.340Z,2259.00
2024-02-26T05:19:25.346Z,2253.00
2024-02-26T05:20:25.324Z,2246.00
2024-02-26T05:21:25.406Z,2228.00
2024-02-26T05:22:25.448Z,2235.00
2024-02-26T05:23:25.509Z,2231.00
2024-02-26T05:24:25.701Z,2197.00
2024-02-26T05:25:25.622Z,2252.00
2024-02-26T05:26:25.625Z,2284.00
2024-02-26T05:27:25.718Z,2307.00
2024-02-26T05:28:25.689Z,2328.00
2024-02-26T05:29:25.666Z,2387.00
2024-02-26T05:30:25.833Z,2411.00
2024-02-26T05:31:33.427Z,600.00
2024-02-26T05:32:33.442Z,600.00
2024-02-26T05:33:33.485Z,600.00
2024-02-26T05:34:33.493Z,600.00
2024-02-26T05:35:33.489Z,600.00
2024-02-26T05:36:33.475Z,601.00
2024-02-26T05:37:33.496Z,601.00
2024-02-26T05:38:33.513Z,605.00
2024-02-26T05:39:33.582Z,601.00
2024-02-26T05:40:33.547Z,606.00
2024-02-26T05:41:33.571Z,625.00
2024-02-26T05:42:33.592Z,624.00
2024-02-26T05:43:33.594Z,631.00
2024-02-26T05:44:33.626Z,641.00
2024-02-26T05:45:33.714Z,628.00
2024-02-26T05:46:33.700Z,616.00
2024-02-26T05:47:33.686Z,602.00
2024-02-26T05:48:33.947Z,614.00
2024-02-26T05:49:33.856Z,630.00
2024-02-26T05:50:33.786Z,651.00
2024-02-26T05:51:33.836Z,739.00
2024-02-26T05:52:33.843Z,849.00
2024-02-26T05:53:33.884Z,941.00
2024-02-26T05:54:33.902Z,1003.00
2024-02-26T05:55:33.914Z,1042.00
2024-02-26T05:56:33.957Z,1056.00
2024-02-26T05:57:33.984Z,1048.00
2024-02-26T05:58:33.972Z,990.00
2024-02-26T05:59:34.070Z,970.00
2024-02-26T06:02:03.038Z,965.00
2024-02-26T06:02:40.402Z,975.00
2024-02-26T06:03:40.480Z,1016.00
2024-02-26T06:04:40.421Z,1066.00
2024-02-26T06:05:40.511Z,1113.00
2024-02-26T06:06:43.745Z,1154.00
2024-02-26T06:07:40.451Z,972.00
2024-02-26T06:08:40.487Z,988.00
2024-02-26T06:09:40.519Z,1000.00
2024-02-26T06:10:40.523Z,1005.00
2024-02-26T06:11:40.529Z,1002.00
2024-02-26T06:12:40.547Z,961.00
2024-02-26T06:13:40.598Z,925.00
2024-02-26T06:14:40.602Z,916.00
2024-02-26T06:15:40.675Z,912.00
2024-02-26T06:16:40.744Z,894.00
2024-02-26T06:17:40.744Z,875.00
2024-02-26T06:18:40.937Z,827.00
2024-02-26T06:19:40.815Z,712.00
2024-02-26T06:20:40.809Z,646.00
2024-02-26T06:21:40.819Z,658.00
2024-02-26T06:22:40.855Z,688.00
2024-02-26T06:23:40.838Z,686.00
2024-02-26T06:24:40.885Z,678.00
2024-02-26T06:25:40.889Z,659.00
2024-02-26T06:26:40.901Z,649.00
2024-02-26T06:27:40.895Z,638.00
2024-02-26T06:28:40.916Z,630.00
2024-02-26T06:29:40.971Z,632.00
2024-02-26T06:30:41.001Z,644.00
2024-02-26T06:31:41.040Z,665.00
2024-02-26T06:32:41.101Z,689.00
2024-02-26T06:33:41.128Z,743.00
2024-02-26T06:34:41.077Z,796.00
2024-02-26T06:35:41.014Z,844.00
2024-02-26T06:36:41.069Z,894.00
2024-02-26T06:37:41.027Z,884.00
2024-02-26T06:38:41.056Z,908.00
2024-02-26T06:39:41.110Z,937.00
2024-02-26T06:40:41.120Z,961.00
2024-02-26T06:41:41.878Z,1032.00
2024-02-26T06:42:41.165Z,1010.00
2024-02-26T06:43:41.147Z,986.00
2024-02-26T06:44:41.145Z,948.00
2024-02-26T06:47:13.671Z,924.00
2024-02-26T06:47:47.727Z,932.00
2024-02-26T06:48:47.601Z,967.00
2024-02-26T06:49:47.561Z,1005.00
2024-02-26T06:50:47.545Z,1049.00
2024-02-26T06:51:47.683Z,1078.00
2024-02-26T06:52:47.594Z,1074.00
2024-02-26T06:53:47.725Z,1021.00
2024-02-26T06:54:48.405Z,999.00
2024-02-26T06:55:47.925Z,932.00
2024-02-26T06:56:48.234Z,908.00
2024-02-26T06:57:48.042Z,879.00
2024-02-26T06:58:48.208Z,877.00
2024-02-26T06:59:48.471Z,898.00
2024-02-26T07:00:49.267Z,909.00
2024-02-26T07:01:48.657Z,910.00
2024-02-26T07:02:48.364Z,921.00
2024-02-26T07:03:48.395Z,924.00
2024-02-26T07:04:48.488Z,948.00
2024-02-26T07:05:48.738Z,992.00
2024-02-26T07:06:48.928Z,995.00
2024-02-26T07:07:48.504Z,1008.00
2024-02-26T07:08:48.631Z,1021.00
2024-02-26T07:09:48.649Z,1050.00
2024-02-26T07:10:48.698Z,1050.00
2024-02-26T07:11:48.778Z,1044.00
2024-02-26T07:12:49.355Z,1061.00
2024-02-26T07:13:48.802Z,1085.00
2024-02-26T07:14:48.992Z,1122.00
2024-02-26T07:15:48.981Z,1164.00
2024-02-26T07:16:48.942Z,1156.00
2024-02-26T07:17:49.255Z,1136.00
2024-02-26T07:18:49.207Z,1120.00
2024-02-26T07:19:49.279Z,1108.00
2024-02-26T07:20:49.504Z,1142.00
2024-02-26T07:21:49.315Z,1171.00
2024-02-26T07:22:49.295Z,1203.00
2024-02-26T07:23:49.464Z,1214.00
2024-02-26T07:24:50.237Z,1215.00
2024-02-26T07:25:50.008Z,1200.00
2024-02-26T07:26:49.596Z,1178.00
2024-02-26T07:27:50.133Z,1186.00
2024-02-26T07:28:49.734Z,1209.00
2024-02-26T07:29:49.884Z,1219.00
2024-02-26T07:30:49.858Z,1208.00
2024-02-26T07:31:49.909Z,1194.00
2024-02-26T07:32:51.622Z,1161.00
2024-02-26T07:33:50.131Z,1152.00
2024-02-26T07:34:50.132Z,1188.00
2024-02-26T07:35:50.186Z,1227.00
2024-02-26T07:36:50.217Z,1276.00
2024-02-26T07:37:50.655Z,1309.00
2024-02-26T07:38:50.607Z,1328.00
2024-02-26T07:39:50.274Z,1330.00
2024-02-26T07:40:56.208Z,1313.00
2024-02-26T07:41:51.846Z,1314.00
2024-02-26T07:42:50.504Z,1311.00
2024-02-26T07:43:50.356Z,1314.00
2024-02-26T07:44:50.410Z,1305.00
2024-02-26T07:45:50.364Z,1295.00
2024-02-26T07:46:50.752Z,1234.00
2024-02-26T07:47:51.718Z,1179.00
2024-02-26T07:48:50.728Z,1101.00
2024-02-26T07:49:50.487Z,999.00
2024-02-26T07:50:50.466Z,907.00
2024-02-26T07:51:50.418Z,859.00
2024-02-26T07:52:50.694Z,849.00
2024-02-26T07:53:50.721Z,890.00
2024-02-26T07:54:50.666Z,971.00
2024-02-26T07:55:50.968Z,1015.00
2024-02-26T07:56:50.903Z,1041.00
2024-02-26T07:57:51.195Z,1074.00
2024-02-26T07:58:50.973Z,1108.00
2024-02-26T07:59:51.597Z,1151.00
2024-02-26T08:00:51.135Z,1186.00
2024-02-26T08:01:54.959Z,1215.00
2024-02-26T08:02:52.652Z,1216.00
2024-02-26T08:03:51.323Z,1221.00
2024-02-26T08:04:51.302Z,1235.00
2024-02-26T08:05:51.386Z,1255.00
2024-02-26T08:06:51.444Z,1257.00
2024-02-26T08:07:51.678Z,1263.00
2024-02-26T08:08:51.201Z,1232.00
2024-02-26T08:09:51.216Z,1215.00
2024-02-26T08:10:51.381Z,1201.00
2024-02-26T08:11:51.228Z,1194.00
2024-02-26T08:12:51.697Z,1169.00
2024-02-26T08:13:51.324Z,1150.00
2024-02-26T08:14:51.427Z,1143.00
2024-02-26T08:15:51.454Z,1145.00
2024-02-26T08:16:51.516Z,1146.00
2024-02-26T08:17:51.778Z,1166.00
2024-02-26T08:18:51.600Z,1160.00
2024-02-26T08:19:51.651Z,1122.00
2024-02-26T08:20:51.631Z,1067.00
2024-02-26T08:21:51.665Z,1039.00
2024-02-26T08:22:51.725Z,1043.00
2024-02-26T08:23:52.014Z,1068.00
2024-02-26T08:24:52.799Z,1108.00
2024-02-26T08:25:52.108Z,1132.00
2024-02-26T08:26:52.008Z,916.00
2024-02-26T08:27:52.211Z,847.00
2024-02-26T08:28:52.017Z,932.00
2024-02-26T08:29:52.172Z,976.00
2024-02-26T08:30:52.144Z,983.00
2024-02-26T08:31:52.157Z,981.00
2024-02-26T08:32:53.081Z,921.00
2024-02-26T08:33:52.683Z,889.00
2024-02-26T08:34:52.406Z,933.00
2024-02-26T08:35:52.309Z,974.00
2024-02-26T08:36:52.411Z,997.00
2024-02-26T08:37:52.687Z,996.00
2024-02-26T08:38:52.522Z,1007.00
2024-02-26T08:39:52.597Z,997.00
2024-02-26T08:40:52.553Z,979.00
2024-02-26T08:41:52.602Z,965.00
2024-02-26T08:42:52.616Z,963.00
2024-02-26T08:43:52.620Z,930.00
2024-02-26T08:44:52.697Z,825.00
2024-02-26T08:45:52.749Z,800.00
2024-02-26T08:46:53.816Z,794.00
2024-02-26T08:47:53.129Z,808.00
2024-02-26T08:48:52.991Z,842.00
2024-02-26T08:49:53.041Z,844.00
2024-02-26T08:50:53.174Z,827.00
2024-02-26T08:51:53.144Z,822.00
2024-02-26T08:52:53.718Z,840.00
2024-02-26T08:53:53.449Z,833.00
2024-02-26T08:54:53.295Z,847.00
2024-02-26T08:55:53.366Z,883.00
2024-02-26T08:56:53.530Z,920.00
2024-02-26T08:57:53.589Z,975.00
2024-02-26T08:58:53.450Z,985.00
2024-02-26T08:59:53.502Z,1015.00
2024-02-26T09:00:53.606Z,1047.00
2024-02-26T09:01:53.578Z,1025.00
2024-02-26T09:02:53.725Z,936.00
2024-02-26T09:03:53.696Z,900.00
2024-02-26T09:04:53.761Z,854.00
2024-02-26T09:05:53.730Z,663.00
2024-02-26T09:06:53.740Z,654.00
2024-02-26T09:07:53.804Z,650.00
2024-02-26T09:08:53.869Z,626.00
2024-02-26T09:09:53.914Z,604.00
2024-02-26T09:10:53.885Z,600.00
2024-02-26T09:11:54.032Z,630.00
2024-02-26T09:12:54.229Z,696.00
2024-02-26T09:13:54.061Z,793.00
2024-02-26T09:14:54.093Z,860.00
2024-02-26T09:15:54.083Z,938.00
2024-02-26T09:16:54.070Z,978.00
2024-02-26T09:17:54.311Z,992.00
2024-02-26T09:18:55.248Z,1016.00
2024-02-26T09:19:54.233Z,1018.00
2024-02-26T09:20:54.262Z,1042.00
2024-02-26T09:21:54.338Z,1042.00
2024-02-26T09:22:55.022Z,1035.00
2024-02-26T09:23:54.717Z,1005.00
2024-02-26T09:24:54.289Z,996.00
2024-02-26T09:25:54.352Z,994.00
2024-02-26T09:26:54.664Z,1026.00
2024-02-26T09:27:54.451Z,994.00
2024-02-26T09:28:54.530Z,985.00
2024-02-26T09:29:54.583Z,948.00
2024-02-26T09:30:54.953Z,762.00
2024-02-26T09:31:54.637Z,664.00
2024-02-26T09:32:54.874Z,688.00
2024-02-26T09:33:56.972Z,719.00
2024-02-26T09:34:54.903Z,720.00
2024-02-26T09:35:54.721Z,751.00
2024-02-26T09:36:58.228Z,803.00
2024-02-26T09:37:55.706Z,805.00
2024-02-26T09:39:00.672Z,807.00
2024-02-26T09:39:55.963Z,805.00
2024-02-26T09:40:54.951Z,813.00
2024-02-26T09:41:55.045Z,824.00
2024-02-26T09:42:54.918Z,828.00
2024-02-26T09:43:55.508Z,829.00
2024-02-26T09:44:55.041Z,848.00
2024-02-26T09:45:55.664Z,847.00
2024-02-26T09:46:55.001Z,869.00
2024-02-26T09:47:55.083Z,904.00
2024-02-26T09:48:55.941Z,918.00
2024-02-26T09:49:55.121Z,910.00
2024-02-26T09:50:55.068Z,910.00
2024-02-26T09:51:55.037Z,932.00
2024-02-26T09:52:56.081Z,933.00
2024-02-26T09:53:55.383Z,934.00
2024-02-26T09:54:55.009Z,941.00
2024-02-26T09:55:55.017Z,964.00
2024-02-26T09:57:00.242Z,966.00
2024-02-26T09:57:56.087Z,935.00
2024-02-26T09:58:55.400Z,947.00
2024-02-26T09:59:54.957Z,961.00
2024-02-26T10:00:54.992Z,983.00
2024-02-26T10:01:54.917Z,1011.00
2024-02-26T10:02:54.897Z,991.00
2024-02-26T10:03:55.170Z,972.00
2024-02-26T10:04:54.934Z,934.00
2024-02-26T10:05:54.929Z,924.00
2024-02-26T10:06:54.916Z,913.00
2024-02-26T10:07:54.825Z,888.00
2024-02-26T10:08:54.909Z,890.00
2024-02-26T10:09:54.860Z,887.00
2024-02-26T10:10:54.970Z,857.00
2024-02-26T10:11:55.059Z,854.00
2024-02-26T10:12:55.044Z,838.00
2024-02-26T10:13:55.112Z,828.00
2024-02-26T10:14:55.158Z,771.00
2024-02-26T10:15:55.121Z,741.00
2024-02-26T10:16:55.259Z,768.00
2024-02-26T10:17:55.204Z,751.00
2024-02-26T10:18:58.755Z,694.00
2024-02-26T10:19:55.348Z,680.00
2024-02-26T10:20:55.172Z,660.00
2024-02-26T10:21:55.150Z,665.00
2024-02-26T10:22:55.174Z,667.00
2024-02-26T10:23:55.238Z,678.00
2024-02-26T10:24:55.165Z,689.00
2024-02-26T10:25:55.156Z,696.00
2024-02-26T10:26:55.388Z,706.00
2024-02-26T10:27:55.078Z,655.00
2024-02-26T10:28:55.901Z,628.00
2024-02-26T10:29:55.119Z,622.00
2024-02-26T10:30:55.109Z,596.00
2024-02-26T10:31:55.138Z,623.00
2024-02-26T10:32:55.417Z,639.00
2024-02-26T10:33:55.778Z,655.00
2024-02-26T10:34:55.419Z,648.00
2024-02-26T10:35:55.386Z,634.00
2024-02-26T10:36:55.732Z,624.00
2024-02-26T10:37:55.654Z,610.00
2024-02-26T10:38:56.529Z,596.00
2024-02-26T10:39:55.487Z,593.00
2024-02-26T10:40:55.472Z,596.00
2024-02-26T10:41:55.596Z,600.00
2024-02-26T10:42:55.431Z,635.00
2024-02-26T10:43:55.713Z,661.00
2024-02-26T10:44:55.987Z,702.00
2024-02-26T10:45:55.517Z,735.00
2024-02-26T10:46:55.623Z,814.00
2024-02-26T10:47:55.725Z,900.00
2024-02-26T10:48:55.955Z,942.00
2024-02-26T10:49:55.696Z,1015.00
2024-02-26T10:50:55.579Z,1131.00
2024-02-26T10:51:55.595Z,1249.00
2024-02-26T10:52:55.776Z,1297.00
2024-02-26T10:53:57.574Z,1296.00
2024-02-26T10:55:01.153Z,1256.00
2024-02-26T10:55:55.655Z,1252.00
2024-02-26T10:56:55.514Z,1210.00
2024-02-26T10:57:55.529Z,1258.00
2024-02-26T10:58:55.736Z,1325.00
2024-02-26T10:59:55.329Z,1395.00
2024-02-26T11:00:55.598Z,1415.00
2024-02-26T11:01:55.118Z,1422.00
2024-02-26T11:02:55.082Z,1038.00
2024-02-26T11:03:55.389Z,763.00
2024-02-26T11:04:54.903Z,625.00
2024-02-26T11:05:54.855Z,570.00
2024-02-26T11:06:54.763Z,514.00
2024-02-26T11:07:54.542Z,510.00
2024-02-26T11:08:54.784Z,572.00
2024-02-26T11:10:17.100Z,600.00
2024-02-26T11:10:54.268Z,601.00
2024-02-26T11:11:55.072Z,607.00
2024-02-26T11:12:54.175Z,602.00
2024-02-26T11:13:54.303Z,532.00
2024-02-26T11:14:53.886Z,554.00
2024-02-26T11:15:53.783Z,537.00
2024-02-26T11:16:53.728Z,574.00
2024-02-26T11:17:53.797Z,569.00
2024-02-26T11:18:53.783Z,586.00
2024-02-26T11:19:53.671Z,605.00
2024-02-26T11:20:53.577Z,600.00
2024-02-26T11:21:53.362Z,600.00
2024-02-26T11:22:53.397Z,600.00
2024-02-26T11:23:53.782Z,598.00
2024-02-26T11:24:53.302Z,618.00
2024-02-26T11:25:53.267Z,637.00
2024-02-26T11:26:53.208Z,613.00
2024-02-26T11:27:53.186Z,596.00
2024-02-26T11:28:53.305Z,600.00
2024-02-26T11:29:53.351Z,600.00
2024-02-26T11:30:53.103Z,586.00
2024-02-26T11:31:53.123Z,592.00
2024-02-26T11:32:53.336Z,598.00
2024-02-26T11:33:53.324Z,595.00
2024-02-26T11:34:53.255Z,594.00
2024-02-26T11:35:53.275Z,600.00
2024-02-26T11:36:54.358Z,595.00
2024-02-26T11:37:53.129Z,598.00
2024-02-26T11:38:53.348Z,598.00
2024-02-26T11:39:53.233Z,600.00
2024-02-26T11:40:53.240Z,601.00
2024-02-26T11:41:53.351Z,598.00
2024-02-26T11:42:53.344Z,600.00
2024-02-26T11:43:53.262Z,600.00
2024-02-26T11:44:53.816Z,602.00
2024-02-26T11:45:53.352Z,602.00
2024-02-26T11:46:53.333Z,614.00
2024-02-26T11:47:53.620Z,605.00
2024-02-26T11:48:53.518Z,600.00
2024-02-26T11:49:53.821Z,608.00
2024-02-26T11:50:53.516Z,603.00
2024-02-26T11:51:53.550Z,600.00
2024-02-26T11:52:53.482Z,602.00
2024-02-26T11:53:53.518Z,600.00
2024-02-26T11:54:53.865Z,602.00
2024-02-26T11:55:53.658Z,603.00
2024-02-26T11:56:53.582Z,600.00
2024-02-26T11:57:53.574Z,600.00
2024-02-26T11:59:19.262Z,605.00
2024-02-26T11:59:53.903Z,605.00
2024-02-26T12:00:53.666Z,607.00
2024-02-26T12:01:53.602Z,607.00
2024-02-26T12:02:53.599Z,603.00
2024-02-26T12:03:54.075Z,583.00
2024-02-26T12:04:53.892Z,596.00
2024-02-26T12:05:53.573Z,600.00
2024-02-26T12:06:53.818Z,601.00
2024-02-26T12:07:53.538Z,600.00
2024-02-26T12:08:53.588Z,601.00
2024-02-26T12:09:53.761Z,603.00
2024-02-26T12:10:53.466Z,601.00
2024-02-26T12:11:53.442Z,600.00
2024-02-26T12:12:53.542Z,602.00
2024-02-26T12:13:53.399Z,600.00
2024-02-26T12:14:53.881Z,602.00
2024-02-26T12:15:53.560Z,601.00
2024-02-26T12:16:53.480Z,601.00